Lykes Provider — VQIV9 — position and weather

sailwx.info

Track history (hours):
 
Tides and Currents Weather Stations Pressure Air Temp Water Temp Dewpoint Dewpoint Depression Visibility Wind Speed Wind Dir Waves Ship Positions

Lykes Provider

Last reported at 2014-Dec-12 18:33 UTC. Time now 2014-Dec-20 18:00 UTC.
Position N 01°49' E 102°32'.

Length 260 m; draft 11.6 m.

Type: Ship (hazmat cat C). MMSI: 235645000.

Date/timePositionNaut miles runAvg speedWind from/ knotsBaromVisibWave heightAir tempDewpointWater temp
2014-Dec-12 18:33N 01°49' E 102°32'7813.0
2014-Dec-12 12:33N 01°14' E 103°42'5 4.8
2014-Dec-12 11:32N 01°16' E 103°46'0 0.0
2014-Dec-12 10:32N 01°16' E 103°46'0 0.0
2014-Dec-12 08:17N 01°16' E 103°46'0 0.0
2014-Dec-12 07:20N 01°16' E 103°46'0 0.0
2014-Dec-12 05:26N 01°16' E 103°46'0 0.0
2014-Dec-12 04:26N 01°16' E 103°46'0 0.0
2014-Dec-12 03:23N 01°16' E 103°46'0 0.0
2014-Dec-12 02:32N 01°16' E 103°46'0 0.0
2014-Dec-12 01:29N 01°16' E 103°46'0 0.0
2014-Dec-12 00:29N 01°16' E 103°46'0 0.4
2014-Dec-11 23:29N 01°16' E 103°47'0 0.1
2014-Dec-11 22:32N 01°16' E 103°47'1 1.5
2014-Dec-11 21:33N 01°15' E 103°47'6 6.4
2014-Dec-11 20:33N 01°13' E 103°53'9 8.8
2014-Dec-11 19:33N 01°16' E 104°01'9 9.3
2014-Dec-11 18:33N 01°17' E 104°10'  
2014-Dec-07 12:32N 22°26' E 113°53'1 1.1
2014-Dec-07 11:29N 22°27' E 113°53'0 0.0
2014-Dec-07 07:28N 22°27' E 113°53'0 0.0
2014-Dec-07 06:28N 22°27' E 113°53'0 0.0
2014-Dec-07 05:28N 22°27' E 113°53'0 0.0
2014-Dec-07 03:28N 22°27' E 113°53'2 2.4
2014-Dec-07 02:33N 22°25' E 113°53'31912.1
2014-Dec-06 00:06N 24°29' E 119°14'34213.9
2014-Dec-04 23:32N 29°23' E 122°30'1714.6
2014-Dec-04 22:22N 29°40' E 122°26'1113.9
2014-Dec-04 21:33N 29°47' E 122°16'1111.3
2014-Dec-04 20:33N 29°55' E 122°08'1010.5
2014-Dec-04 19:33N 29°56' E 121°56'0 0.2
2014-Dec-04 18:14N 29°56' E 121°56'0 0.0
2014-Dec-04 17:26N 29°56' E 121°56'0 0.0
2014-Dec-04 16:23N 29°56' E 121°56'0 0.0
2014-Dec-04 15:29N 29°56' E 121°56'0 0.0
2014-Dec-04 13:23N 29°56' E 121°56'0 0.0
2014-Dec-04 12:29N 29°56' E 121°56'0 0.0
2014-Dec-04 11:23N 29°56' E 121°56'0 0.0
2014-Dec-04 10:23N 29°56' E 121°56'1 1.6
2014-Dec-04 09:32N 29°57' E 121°57'8 8.1
2014-Dec-04 08:32N 29°56' E 122°06'1110.7
2014-Dec-04 07:33N 29°48' E 122°15'1111.1
2014-Dec-04 06:33N 29°46' E 122°27'2 1.6
2014-Dec-04 05:23N 29°46' E 122°29'0 0.0
2014-Dec-04 03:32N 29°46' E 122°29'3 2.7
2014-Dec-04 02:33N 29°45' E 122°32'81 8.9
2014-Dec-03 17:29N 31°06' E 122°29'1314.1
2014-Dec-03 16:33N 31°09' E 122°14'1413.8
2014-Dec-03 15:33N 31°15' E 121°59'1514.7
2014-Dec-03 14:33N 31°19' E 121°43'7 6.4
2014-Dec-03 13:28N 31°22' E 121°36'0 0.0
2014-Dec-03 12:31N 31°22' E 121°36'0 0.0
2014-Dec-03 11:31N 31°22' E 121°36'0 0.0
2014-Dec-03 10:27N 31°22' E 121°36'0 0.0
2014-Dec-03 09:30N 31°22' E 121°36'0 0.0
2014-Dec-03 08:33N 31°22' E 121°36'0 0.0
2014-Dec-03 07:33N 31°22' E 121°36'0 0.0
2014-Dec-03 06:33N 31°22' E 121°36'0 0.0
2014-Dec-03 05:33N 31°22' E 121°36'0 0.0
2014-Dec-03 04:27N 31°22' E 121°36'0 0.1
2014-Dec-03 03:33N 31°22' E 121°36'0 0.0
2014-Dec-03 02:33N 31°22' E 121°36'0 0.0
2014-Dec-03 01:33N 31°22' E 121°36'0 0.0
2014-Dec-03 00:32N 31°22' E 121°36'0 0.0
2014-Dec-02 23:29N 31°22' E 121°36'0 0.3
2014-Dec-02 22:34N 31°22' E 121°36'9 9.3
2014-Dec-02 21:33N 31°18' E 121°46'1312.7
2014-Dec-02 20:33N 31°15' E 121°60'1211.7
2014-Dec-02 19:33N 31°10' E 122°12'  
Track history (hours):
 
Tides and Currents Weather Stations Pressure Air Temp Water Temp Dewpoint Dewpoint Depression Visibility Wind Speed Wind Dir Waves Ship Positions

Lykes Provider

Last reported at 2014-Dec-12 18:33 UTC. Time now 2014-Dec-20 18:00 UTC.
Position N 01°49' E 102°32'.

Length 260 m; draft 11.6 m.

Type: Ship (hazmat cat C). MMSI: 235645000.

Date/timePositionNaut miles runAvg speedWind from/ knotsBaromVisibWave heightAir tempDewpointWater temp
2014-Dec-12 18:33N 01°49' E 102°32'7813.0
2014-Dec-12 12:33N 01°14' E 103°42'5 4.8
2014-Dec-12 11:32N 01°16' E 103°46'0 0.0
2014-Dec-12 10:32N 01°16' E 103°46'0 0.0
2014-Dec-12 08:17N 01°16' E 103°46'0 0.0
2014-Dec-12 07:20N 01°16' E 103°46'0 0.0
2014-Dec-12 05:26N 01°16' E 103°46'0 0.0
2014-Dec-12 04:26N 01°16' E 103°46'0 0.0
2014-Dec-12 03:23N 01°16' E 103°46'0 0.0
2014-Dec-12 02:32N 01°16' E 103°46'0 0.0
2014-Dec-12 01:29N 01°16' E 103°46'0 0.0
2014-Dec-12 00:29N 01°16' E 103°46'0 0.4
2014-Dec-11 23:29N 01°16' E 103°47'0 0.1
2014-Dec-11 22:32N 01°16' E 103°47'1 1.5
2014-Dec-11 21:33N 01°15' E 103°47'6 6.4
2014-Dec-11 20:33N 01°13' E 103°53'9 8.8
2014-Dec-11 19:33N 01°16' E 104°01'9 9.3
2014-Dec-11 18:33N 01°17' E 104°10'  
2014-Dec-07 12:32N 22°26' E 113°53'1 1.1
2014-Dec-07 11:29N 22°27' E 113°53'0 0.0
2014-Dec-07 07:28N 22°27' E 113°53'0 0.0
2014-Dec-07 06:28N 22°27' E 113°53'0 0.0
2014-Dec-07 05:28N 22°27' E 113°53'0 0.0
2014-Dec-07 03:28N 22°27' E 113°53'2 2.4
2014-Dec-07 02:33N 22°25' E 113°53'31912.1
2014-Dec-06 00:06N 24°29' E 119°14'34213.9
2014-Dec-04 23:32N 29°23' E 122°30'1714.6
2014-Dec-04 22:22N 29°40' E 122°26'1113.9
2014-Dec-04 21:33N 29°47' E 122°16'1111.3
2014-Dec-04 20:33N 29°55' E 122°08'1010.5
2014-Dec-04 19:33N 29°56' E 121°56'0 0.2
2014-Dec-04 18:14N 29°56' E 121°56'0 0.0
2014-Dec-04 17:26N 29°56' E 121°56'0 0.0
2014-Dec-04 16:23N 29°56' E 121°56'0 0.0
2014-Dec-04 15:29N 29°56' E 121°56'0 0.0
2014-Dec-04 13:23N 29°56' E 121°56'0 0.0
2014-Dec-04 12:29N 29°56' E 121°56'0 0.0
2014-Dec-04 11:23N 29°56' E 121°56'0 0.0
2014-Dec-04 10:23N 29°56' E 121°56'1 1.6
2014-Dec-04 09:32N 29°57' E 121°57'8 8.1
2014-Dec-04 08:32N 29°56' E 122°06'1110.7
2014-Dec-04 07:33N 29°48' E 122°15'1111.1
2014-Dec-04 06:33N 29°46' E 122°27'2 1.6
2014-Dec-04 05:23N 29°46' E 122°29'0 0.0
2014-Dec-04 03:32N 29°46' E 122°29'3 2.7
2014-Dec-04 02:33N 29°45' E 122°32'81 8.9
2014-Dec-03 17:29N 31°06' E 122°29'1314.1
2014-Dec-03 16:33N 31°09' E 122°14'1413.8
2014-Dec-03 15:33N 31°15' E 121°59'1514.7
2014-Dec-03 14:33N 31°19' E 121°43'7 6.4
2014-Dec-03 13:28N 31°22' E 121°36'0 0.0
2014-Dec-03 12:31N 31°22' E 121°36'0 0.0
2014-Dec-03 11:31N 31°22' E 121°36'0 0.0
2014-Dec-03 10:27N 31°22' E 121°36'0 0.0
2014-Dec-03 09:30N 31°22' E 121°36'0 0.0
2014-Dec-03 08:33N 31°22' E 121°36'0 0.0
2014-Dec-03 07:33N 31°22' E 121°36'0 0.0
2014-Dec-03 06:33N 31°22' E 121°36'0 0.0
2014-Dec-03 05:33N 31°22' E 121°36'0 0.0
2014-Dec-03 04:27N 31°22' E 121°36'0 0.1
2014-Dec-03 03:33N 31°22' E 121°36'0 0.0
2014-Dec-03 02:33N 31°22' E 121°36'0 0.0
2014-Dec-03 01:33N 31°22' E 121°36'0 0.0
2014-Dec-03 00:32N 31°22' E 121°36'0 0.0
2014-Dec-02 23:29N 31°22' E 121°36'0 0.3
2014-Dec-02 22:34N 31°22' E 121°36'9 9.3
2014-Dec-02 21:33N 31°18' E 121°46'1312.7
2014-Dec-02 20:33N 31°15' E 121°60'1211.7
2014-Dec-02 19:33N 31°10' E 122°12'  

Dump ship's entire track history